K0QMS Weather Reports


Display with metric or nautical units.
time (UTC)temp
F
wind
direction
speed
MPH
gust
MPH
rain 1hr
in
rain 24hr
in
rain mn
in
humidity
%
barometer
mb
20240530100915 60 294 4.0 8.0 0.00 0.00 0.00 22 1672.0
20240530095917 61 277 2.0 3.0 0.00 0.00 0.00 19 1672.0
20240530094817 61 292 2.0 3.0 0.00 0.00 0.00 16 1671.7
20240530093717 61 305 2.0 3.0 0.00 0.00 0.00 15 1671.4
20240530091719 62 283 1.0 3.0 0.00 0.00 0.00 14 1671.2
20240530090817 62 270 1.0 1.0 0.00 0.00 0.00 14 1671.0
20240530090716 62 262 1.0 2.0 0.00 0.00 0.00 13 1671.0
20240530085716 61 247 0.0 1.0 0.00 0.00 0.00 14 1670.9
20240530084716 61 292 1.0 2.0 0.00 0.00 0.00 14 1671.0
20240530083717 60 247 0.0 1.0 0.00 0.00 0.00 14 1671.0
20240530082715 60 247 1.0 1.0 0.00 0.00 0.00 15 1670.8
20240530075815 61 21 4.0 6.0 0.00 0.00 0.00 14 1670.4
20240530074832 60 89 3.0 4.0 0.00 0.00 0.00 15 1670.1
20240530073916 62 28 3.0 4.0 0.00 0.00 0.00 13 1670.3
20240530072916 65 45 0.0 1.0 0.00 0.00 0.00 11 1670.1
20240530071915 66 245 0.0 2.0 0.00 0.00 0.00 10 1669.9
20240530070915 66 282 2.0 8.0 0.00 0.00 0.00 10 1669.3
20240530065916 67 224 6.0 10.0 0.00 0.00 0.00 9 1669.1
20240530064815 67 229 4.0 9.0 0.00 0.00 0.00 9 1669.2
20240530063817 68 227 6.0 11.0 0.00 0.00 0.00 9 1669.2
20240530061716 68 30 3.0 5.0 0.00 0.00 0.00 9 1669.1
20240530060731 68 251 6.0 9.0 0.00 0.00 0.00 9 1669.2
20240530055826 68 264 4.0 8.0 0.00 0.00 0.00 8 1669.3
20240530053924 68 214 7.0 16.0 0.00 0.00 0.00 10 1669.4
20240530052025 66 211 5.0 8.0 0.00 0.00 0.00 11 1669.7
20240530051123 66 202 5.0 10.0 0.00 0.00 0.00 11 1669.7
20240530050123 67 234 4.0 8.0 0.00 0.00 0.00 11 1670.1
20240530045024 67 232 0.0 2.0 0.00 0.00 0.00 12 1670.1
20240530044123 67 220 4.0 9.0 0.00 0.00 0.00 13 1670.0
20240530043123 67 239 4.0 9.0 0.00 0.00 0.00 13 1670.1
20240530042122 68 232 3.0 7.0 0.00 0.00 0.00 13 1670.1
20240530041124 68 232 4.0 13.0 0.00 0.00 0.00 13 1669.8
20240530035124 69 201 4.0 8.0 0.00 0.00 0.00 12 1669.4
20240530034122 68 217 6.0 14.0 0.00 0.00 0.00 12 1669.2
20240530033122 69 200 8.0 13.0 0.00 0.00 0.00 12 1668.6
20240530032124 69 201 8.0 14.0 0.00 0.00 0.00 11 1668.5
20240530030139 71 209 8.0 14.0 0.00 0.00 0.00 11 1668.2
20240530025024 72 198 10.0 14.0 0.00 0.00 0.00 11 1668.3
20240530024123 73 204 6.0 10.0 0.00 0.00 0.00 10 1668.1
20240530023124 74 209 6.0 11.0 0.00 0.00 0.00 10 1668.2
20240530022123 75 207 5.0 9.0 0.00 0.00 0.00 10 1668.0
20240530021122 76 201 7.0 13.0 0.00 0.00 0.00 9 1668.0
20240530020124 76 240 7.0 14.0 0.00 0.00 0.00 8 1667.8
20240530015221 77 204 5.0 10.0 0.00 0.00 0.00 9 1667.6
20240530014223 78 224 8.0 14.0 0.00 0.00 0.00 9 1667.6
20240530013123 78 228 6.0 10.0 0.00 0.00 0.00 8 1667.6
20240530011922 78 242 7.0 19.0 0.00 0.00 0.00 9 1667.1
20240530010823 78 311 5.0 9.0 0.00 0.00 0.00 9 1667.1
20240530005823 79 332 4.0 7.0 0.00 0.00 0.00 9 1666.9
20240530004823 79 220 7.0 16.0 0.00 0.00 0.00 10 1666.7
20240530003823 79 251 7.0 16.0 0.00 0.00 0.00 10 1666.7
20240530001823 80 256 5.0 10.0 0.00 0.00 0.00 9 1666.9
20240530000823 80 296 6.0 12.0 0.00 0.00 0.00 9 1666.9
20240529235824 81 285 5.0 18.0 0.00 0.00 0.00 9 1666.9
20240529234823 81 27 3.0 7.0 0.00 0.00 0.00 9 1667.0
20240529233823 81 295 7.0 15.0 0.00 0.00 0.00 10 1666.8
20240529232921 81 230 8.0 17.0 0.00 0.00 0.00 10 1667.0
20240529231923 82 237 5.0 10.0 0.00 0.00 0.00 10 1666.8
20240529230922 81 252 6.0 13.0 0.00 0.00 0.00 10 1667.0
20240529225022 81 219 7.0 16.0 0.00 0.00 0.00 11 1667.3
20240529224023 81 237 7.0 16.0 0.00 0.00 0.00 12 1667.1
20240529221023 82 286 8.0 15.0 0.00 0.00 0.00 10 1667.5
20240529220122 82 254 7.0 16.0 0.00 0.00 0.00 10 1667.8
20240529215023 81 211 8.0 12.0 0.00 0.00 0.00 11 1668.2
20240529213923 81 201 10.0 16.0 0.00 0.00 0.00 11 1667.9
20240529212023 82 213 15.0 24.0 0.00 0.00 0.00 9 1668.0
20240529211024 81 319 3.0 9.0 0.00 0.00 0.00 10 1668.4
20240529210122 81 217 11.0 19.0 0.00 0.00 0.00 9 1668.4
20240529205222 81 228 8.0 17.0 0.00 0.00 0.00 10 1668.9
20240529204224 81 214 9.0 13.0 0.00 0.00 0.00 9 1668.9
20240529203322 81 265 8.0 13.0 0.00 0.00 0.00 10 1668.7
20240529202323 81 236 7.0 15.0 0.00 0.00 0.00 9 1669.1
20240529201324 81 282 5.0 10.0 0.00 0.00 0.00 10 1669.2
20240529200422 81 284 5.0 10.0 0.00 0.00 0.00 11 1669.4
20240529195423 81 296 9.0 14.0 0.00 0.00 0.00 10 1669.4
20240529194324 81 206 14.0 26.0 0.00 0.00 0.00 11 1669.7
20240529193324 81 236 4.0 9.0 0.00 0.00 0.00 11 1669.8
20240529192422 80 285 5.0 12.0 0.00 0.00 0.00 10 1670.2
20240529190423 80 211 8.0 12.0 0.00 0.00 0.00 10 1670.4
20240529185423 80 226 6.0 20.0 0.00 0.00 0.00 10 1670.3
20240529184422 81 230 11.0 20.0 0.00 0.00 0.00 13 1670.6
20240529183224 81 253 4.0 11.0 0.00 0.00 0.00 13 1670.6
20240529182221 78 283 2.0 4.0 0.00 0.00 0.00 16 1670.5
20240529181123 77 62 2.0 4.0 0.00 0.00 0.00 19 1671.2
20240529180122 76 2 4.0 7.0 0.00 0.00 0.00 19 1671.3
20240529175123 76 34 6.0 8.0 0.00 0.00 0.00 19 1671.5
20240529174222 75 37 4.0 7.0 0.00 0.00 0.00 21 1671.9
20240529173222 74 18 5.0 7.0 0.00 0.00 0.00 21 1671.8
20240529172222 74 5 4.0 6.0 0.00 0.00 0.00 21 1671.8
20240529171122 74 25 2.0 4.0 0.00 0.00 0.00 21 1672.3
20240529170121 75 352 3.0 4.0 0.00 0.00 0.00 21 1672.3
20240529165121 74 345 1.0 2.0 0.00 0.00 0.00 19 1672.6
20240529164123 73 14 3.0 7.0 0.00 0.00 0.00 19 1672.6
20240529163122 73 19 2.0 4.0 0.00 0.00 0.00 19 1673.0
20240529162122 72 28 3.0 4.0 0.00 0.00 0.00 17 1672.9
20240529161024 71 72 2.0 4.0 0.00 0.00 0.00 18 1673.3
20240529160023 69 6 2.0 4.0 0.00 0.00 0.00 19 1673.5
20240529155021 69 357 2.0 4.0 0.00 0.00 0.00 18 1673.5
20240529153925 69 36 2.0 5.0 0.00 0.00 0.00 18 1673.5
20240529152921 69 343 3.0 4.0 0.00 0.00 0.00 17 1673.5
20240529151022 68 346 3.0 5.0 0.00 0.00 0.00 16 1674.0
20240529150025 66 23 1.0 4.0 0.00 0.00 0.00 17 1674.0
20240529145122 65 339 2.0 4.0 0.00 0.00 0.00 19 1674.5
20240529144222 63 338 3.0 4.0 0.00 0.00 0.00 21 1674.6
20240529142322 61 316 3.0 4.0 0.00 0.00 0.00 24 1674.9
20240529141323 62 337 2.0 4.0 0.00 0.00 0.00 23 1674.7
20240529135322 61 334 2.0 4.0 0.00 0.00 0.00 23 1674.4
20240529133323 60 349 2.0 4.0 0.00 0.00 0.00 22 1674.3
20240529132324 60 337 2.0 3.0 0.00 0.00 0.00 23 1674.0
20240529130323 57 247 0.0 1.0 0.00 0.00 0.00 24 1674.3
20240529125422 56 247 0.0 0.0 0.00 0.00 0.00 25 1674.6
20240529123422 55 292 0.0 0.0 0.00 0.00 0.00 25 1674.5
20240529122425 53 292 0.0 1.0 0.00 0.00 0.00 26 1674.2
20240529115422 53 202 2.0 2.0 0.00 0.00 0.00 26 1674.0
20240529114422 53 202 2.0 2.0 0.00 0.00 0.00 25 1673.8
20240529113521 53 202 1.0 2.0 0.00 0.00 0.00 25 1673.6
20240529112524 53 202 1.0 2.0 0.00 0.00 0.00 24 1673.8
20240529111422 53 202 0.0 1.0 0.00 0.00 0.00 25 1673.8
20240529105322 53 225 2.0 2.0 0.00 0.00 0.00 25 1673.6
20240529104223 54 225 3.0 4.0 0.00 0.00 0.00 23 1673.6
20240529102121 54 180 1.0 1.0 0.00 0.00 0.00 22 1673.5